sensor_id;sensor_type;location;lat;lon;timestamp;pressure;altitude;pressure_sealevel;temperature;humidity
37304;BME280;23188;51.188;16.374;2024-03-29T00:02:48;98744.69;;;8.45;88.16
37304;BME280;23188;51.188;16.374;2024-03-29T00:06:51;98749.88;;;8.37;88.76
37304;BME280;23188;51.188;16.374;2024-03-29T00:10:54;98759.49;;;8.33;89.25
37304;BME280;23188;51.188;16.374;2024-03-29T00:14:57;98772.60;;;8.25;89.38
37304;BME280;23188;51.188;16.374;2024-03-29T00:19:00;98784.25;;;8.16;89.99
37304;BME280;23188;51.188;16.374;2024-03-29T00:23:03;98793.14;;;8.07;90.44
37304;BME280;23188;51.188;16.374;2024-03-29T00:27:06;98804.27;;;8.04;90.68
37304;BME280;23188;51.188;16.374;2024-03-29T00:31:08;98811.42;;;8.01;91.15
37304;BME280;23188;51.188;16.374;2024-03-29T00:35:11;98819.48;;;7.97;91.39
37304;BME280;23188;51.188;16.374;2024-03-29T00:39:16;98829.16;;;8.00;91.34
37304;BME280;23188;51.188;16.374;2024-03-29T00:43:19;98846.30;;;8.02;91.28
37304;BME280;23188;51.188;16.374;2024-03-29T00:47:22;98850.63;;;8.02;91.28
37304;BME280;23188;51.188;16.374;2024-03-29T00:51:25;98857.38;;;8.04;91.24
37304;BME280;23188;51.188;16.374;2024-03-29T00:55:31;98867.80;;;8.02;91.17
37304;BME280;23188;51.188;16.374;2024-03-29T00:59:34;98873.86;;;8.03;91.07
37304;BME280;23188;51.188;16.374;2024-03-29T01:03:37;98882.57;;;8.05;91.27
37304;BME280;23188;51.188;16.374;2024-03-29T01:07:40;98889.23;;;8.03;91.72
37304;BME280;23188;51.188;16.374;2024-03-29T01:11:43;98895.98;;;7.95;92.75
37304;BME280;23188;51.188;16.374;2024-03-29T01:15:46;98895.66;;;7.85;93.33
37304;BME280;23188;51.188;16.374;2024-03-29T01:19:49;98898.61;;;7.74;94.30
37304;BME280;23188;51.188;16.374;2024-03-29T01:23:52;98889.10;;;7.68;94.95
37304;BME280;23188;51.188;16.374;2024-03-29T01:27:55;98893.26;;;7.67;95.04
37304;BME280;23188;51.188;16.374;2024-03-29T01:31:58;98896.16;;;7.60;95.74
37304;BME280;23188;51.188;16.374;2024-03-29T01:36:01;98895.27;;;7.56;95.86
37304;BME280;23188;51.188;16.374;2024-03-29T01:40:05;98895.68;;;7.55;95.86
37304;BME280;23188;51.188;16.374;2024-03-29T01:44:08;98897.11;;;7.54;96.18
37304;BME280;23188;51.188;16.374;2024-03-29T01:48:11;98890.67;;;7.51;96.49
37304;BME280;23188;51.188;16.374;2024-03-29T01:52:15;98892.02;;;7.49;96.88
37304;BME280;23188;51.188;16.374;2024-03-29T01:56:21;98884.48;;;7.49;96.96
37304;BME280;23188;51.188;16.374;2024-03-29T02:00:25;98884.89;;;7.42;97.34
37304;BME280;23188;51.188;16.374;2024-03-29T02:04:29;98893.50;;;7.33;98.05
37304;BME280;23188;51.188;16.374;2024-03-29T02:08:33;98892.44;;;7.25;97.84
37304;BME280;23188;51.188;16.374;2024-03-29T02:12:36;98899.92;;;7.20;97.64
37304;BME280;23188;51.188;16.374;2024-03-29T02:16:39;98906.74;;;7.19;97.40
37304;BME280;23188;51.188;16.374;2024-03-29T02:20:42;98916.77;;;7.18;97.27
37304;BME280;23188;51.188;16.374;2024-03-29T02:24:45;98923.94;;;7.16;97.37
37304;BME280;23188;51.188;16.374;2024-03-29T02:28:48;98935.30;;;7.15;97.27
37304;BME280;23188;51.188;16.374;2024-03-29T02:32:51;98943.20;;;7.17;97.14
37304;BME280;23188;51.188;16.374;2024-03-29T02:36:54;98957.91;;;7.22;96.58
37304;BME280;23188;51.188;16.374;2024-03-29T02:40:57;98955.42;;;7.31;95.74
37304;BME280;23188;51.188;16.374;2024-03-29T02:44:59;98950.45;;;7.37;95.33
37304;BME280;23188;51.188;16.374;2024-03-29T02:49:02;98948.45;;;7.40;94.73
37304;BME280;23188;51.188;16.374;2024-03-29T02:53:06;98948.77;;;7.42;94.35
37304;BME280;23188;51.188;16.374;2024-03-29T02:57:09;98949.70;;;7.41;93.90
37304;BME280;23188;51.188;16.374;2024-03-29T03:01:12;98949.19;;;7.36;93.90
37304;BME280;23188;51.188;16.374;2024-03-29T03:05:15;98948.37;;;7.35;93.85
37304;BME280;23188;51.188;16.374;2024-03-29T03:09:18;98948.41;;;7.36;93.63
37304;BME280;23188;51.188;16.374;2024-03-29T03:13:40;98950.83;;;7.37;93.31
37304;BME280;23188;51.188;16.374;2024-03-29T03:17:43;98950.49;;;7.35;93.41
37304;BME280;23188;51.188;16.374;2024-03-29T03:21:45;98953.25;;;7.32;93.28
37304;BME280;23188;51.188;16.374;2024-03-29T03:25:59;98956.36;;;7.26;93.07
37304;BME280;23188;51.188;16.374;2024-03-29T03:30:02;98947.92;;;7.22;93.20
37304;BME280;23188;51.188;16.374;2024-03-29T03:34:05;98944.98;;;7.19;92.92
37304;BME280;23188;51.188;16.374;2024-03-29T03:38:08;98952.53;;;7.15;92.54
37304;BME280;23188;51.188;16.374;2024-03-29T03:42:11;98963.55;;;7.12;92.44
37304;BME280;23188;51.188;16.374;2024-03-29T03:46:14;98967.23;;;7.09;91.81
37304;BME280;23188;51.188;16.374;2024-03-29T03:50:17;98974.35;;;7.08;91.49
37304;BME280;23188;51.188;16.374;2024-03-29T03:54:20;98995.22;;;7.11;91.17
37304;BME280;23188;51.188;16.374;2024-03-29T03:58:22;99017.05;;;7.12;90.92
37304;BME280;23188;51.188;16.374;2024-03-29T04:02:25;99009.75;;;7.08;91.52
37304;BME280;23188;51.188;16.374;2024-03-29T04:06:28;99003.45;;;6.97;92.54
37304;BME280;23188;51.188;16.374;2024-03-29T04:10:31;99000.55;;;6.90;93.13
37304;BME280;23188;51.188;16.374;2024-03-29T04:14:33;99003.73;;;6.80;93.27
37304;BME280;23188;51.188;16.374;2024-03-29T04:18:36;99008.11;;;6.72;92.81
37304;BME280;23188;51.188;16.374;2024-03-29T04:22:40;99004.67;;;6.61;93.40
37304;BME280;23188;51.188;16.374;2024-03-29T04:26:42;98994.90;;;6.37;95.18
37304;BME280;23188;51.188;16.374;2024-03-29T04:30:58;99001.92;;;6.22;95.61
37304;BME280;23188;51.188;16.374;2024-03-29T04:35:01;99012.64;;;6.16;96.27
37304;BME280;23188;51.188;16.374;2024-03-29T04:39:04;99020.81;;;6.20;96.82
37304;BME280;23188;51.188;16.374;2024-03-29T04:43:07;99021.20;;;6.27;96.87
37304;BME280;23188;51.188;16.374;2024-03-29T04:47:10;99025.23;;;6.32;97.06
37304;BME280;23188;51.188;16.374;2024-03-29T04:51:13;99022.63;;;6.34;97.70
37304;BME280;23188;51.188;16.374;2024-03-29T04:55:16;99026.29;;;6.30;99.06
37304;BME280;23188;51.188;16.374;2024-03-29T04:59:19;99025.19;;;6.38;99.43
37304;BME280;23188;51.188;16.374;2024-03-29T05:03:23;99030.38;;;6.38;100.00
37304;BME280;23188;51.188;16.374;2024-03-29T05:07:26;99029.27;;;6.88;98.50
37304;BME280;23188;51.188;16.374;2024-03-29T05:11:29;99021.52;;;7.41;95.75
37304;BME280;23188;51.188;16.374;2024-03-29T05:15:32;99034.25;;;7.94;92.52
37304;BME280;23188;51.188;16.374;2024-03-29T05:19:35;99017.60;;;8.49;89.31
37304;BME280;23188;51.188;16.374;2024-03-29T05:23:38;99012.98;;;8.97;86.41
37304;BME280;23188;51.188;16.374;2024-03-29T05:27:41;99021.65;;;9.55;83.27
37304;BME280;23188;51.188;16.374;2024-03-29T05:31:44;99017.60;;;9.98;80.88
37304;BME280;23188;51.188;16.374;2024-03-29T05:35:47;99016.70;;;10.44;78.55
37304;BME280;23188;51.188;16.374;2024-03-29T05:39:49;99011.06;;;10.78;76.86
37304;BME280;23188;51.188;16.374;2024-03-29T05:43:54;99019.39;;;10.88;75.35
37304;BME280;23188;51.188;16.374;2024-03-29T05:47:58;99025.60;;;11.09;75.11
37304;BME280;23188;51.188;16.374;2024-03-29T05:52:01;99024.30;;;11.28;74.17
37304;BME280;23188;51.188;16.374;2024-03-29T05:56:05;99019.34;;;11.47;73.19
37304;BME280;23188;51.188;16.374;2024-03-29T06:00:08;99017.52;;;11.56;72.72
37304;BME280;23188;51.188;16.374;2024-03-29T06:04:14;99021.55;;;11.73;72.65
37304;BME280;23188;51.188;16.374;2024-03-29T06:08:21;99026.19;;;11.85;72.47
37304;BME280;23188;51.188;16.374;2024-03-29T06:12:26;99031.09;;;11.87;71.63
37304;BME280;23188;51.188;16.374;2024-03-29T06:16:29;99029.59;;;11.95;71.64
37304;BME280;23188;51.188;16.374;2024-03-29T06:20:51;99022.92;;;12.02;71.45
37304;BME280;23188;51.188;16.374;2024-03-29T06:24:53;99012.33;;;12.00;71.40
37304;BME280;23188;51.188;16.374;2024-03-29T06:28:56;99019.17;;;11.89;71.62
37304;BME280;23188;51.188;16.374;2024-03-29T06:32:59;99024.46;;;11.96;72.06
37304;BME280;23188;51.188;16.374;2024-03-29T06:37:05;99024.52;;;12.04;72.49
37304;BME280;23188;51.188;16.374;2024-03-29T06:41:08;99018.86;;;12.14;71.45
37304;BME280;23188;51.188;16.374;2024-03-29T06:45:11;99010.02;;;12.20;71.51
37304;BME280;23188;51.188;16.374;2024-03-29T06:49:14;99016.73;;;12.37;71.45
37304;BME280;23188;51.188;16.374;2024-03-29T06:53:17;99016.48;;;12.44;70.82
37304;BME280;23188;51.188;16.374;2024-03-29T06:57:20;99023.95;;;12.29;70.60
37304;BME280;23188;51.188;16.374;2024-03-29T07:01:28;99027.06;;;12.22;71.32
37304;BME280;23188;51.188;16.374;2024-03-29T07:05:30;99030.57;;;12.16;71.34
37304;BME280;23188;51.188;16.374;2024-03-29T07:09:33;99034.00;;;12.09;71.94
37304;BME280;23188;51.188;16.374;2024-03-29T07:13:36;99045.45;;;12.04;71.98
37304;BME280;23188;51.188;16.374;2024-03-29T07:17:39;99048.95;;;12.03;72.36
37304;BME280;23188;51.188;16.374;2024-03-29T07:21:43;99051.05;;;11.98;72.13
37304;BME280;23188;51.188;16.374;2024-03-29T07:26:00;99059.66;;;11.97;72.89
37304;BME280;23188;51.188;16.374;2024-03-29T07:30:04;99067.89;;;12.00;72.32
37304;BME280;23188;51.188;16.374;2024-03-29T07:34:07;99056.40;;;12.00;71.55
37304;BME280;23188;51.188;16.374;2024-03-29T07:38:10;99058.50;;;12.05;71.42
37304;BME280;23188;51.188;16.374;2024-03-29T07:42:13;99068.65;;;12.13;71.71
37304;BME280;23188;51.188;16.374;2024-03-29T07:46:15;99079.14;;;12.22;71.29
37304;BME280;23188;51.188;16.374;2024-03-29T07:50:19;99089.55;;;12.31;70.78
37304;BME280;23188;51.188;16.374;2024-03-29T07:54:22;99095.34;;;12.46;72.28
37304;BME280;23188;51.188;16.374;2024-03-29T07:58:25;99097.08;;;12.50;70.46
37304;BME280;23188;51.188;16.374;2024-03-29T08:02:28;99100.52;;;12.50;69.24
37304;BME280;23188;51.188;16.374;2024-03-29T08:06:32;99097.44;;;12.50;68.96
37304;BME280;23188;51.188;16.374;2024-03-29T08:10:36;99108.47;;;12.58;68.40
37304;BME280;23188;51.188;16.374;2024-03-29T08:14:39;99116.84;;;12.62;67.51
37304;BME280;23188;51.188;16.374;2024-03-29T08:18:42;99124.44;;;12.72;67.78
37304;BME280;23188;51.188;16.374;2024-03-29T08:22:48;99122.74;;;12.89;68.24
37304;BME280;23188;51.188;16.374;2024-03-29T08:26:51;99126.92;;;13.09;67.13
37304;BME280;23188;51.188;16.374;2024-03-29T08:30:58;99121.45;;;13.27;65.92
37304;BME280;23188;51.188;16.374;2024-03-29T08:35:01;99112.88;;;13.45;66.11
37304;BME280;23188;51.188;16.374;2024-03-29T08:39:04;99115.08;;;13.71;67.51
37304;BME280;23188;51.188;16.374;2024-03-29T08:43:07;99115.81;;;14.01;65.41
37304;BME280;23188;51.188;16.374;2024-03-29T08:47:10;99111.48;;;14.25;64.55
37304;BME280;23188;51.188;16.374;2024-03-29T08:51:13;99105.15;;;14.44;63.43
37304;BME280;23188;51.188;16.374;2024-03-29T08:55:17;99104.80;;;14.56;60.86
37304;BME280;23188;51.188;16.374;2024-03-29T08:59:20;99093.15;;;14.61;59.13
37304;BME280;23188;51.188;16.374;2024-03-29T09:03:24;99100.16;;;14.67;58.55
37304;BME280;23188;51.188;16.374;2024-03-29T09:07:27;99095.41;;;14.73;59.11
37304;BME280;23188;51.188;16.374;2024-03-29T09:11:31;99084.38;;;14.76;58.91
37304;BME280;23188;51.188;16.374;2024-03-29T09:15:34;99090.02;;;14.94;60.16
37304;BME280;23188;51.188;16.374;2024-03-29T09:19:37;99086.60;;;15.19;58.87
37304;BME280;23188;51.188;16.374;2024-03-29T09:23:39;99082.62;;;15.40;58.37
37304;BME280;23188;51.188;16.374;2024-03-29T09:27:47;99083.52;;;15.61;57.09
37304;BME280;23188;51.188;16.374;2024-03-29T09:31:51;99077.02;;;15.86;56.97
37304;BME280;23188;51.188;16.374;2024-03-29T09:35:54;99077.16;;;16.04;56.21
37304;BME280;23188;51.188;16.374;2024-03-29T09:39:57;99074.52;;;16.15;51.45
37304;BME280;23188;51.188;16.374;2024-03-29T09:44:02;99078.30;;;16.31;51.00
37304;BME280;23188;51.188;16.374;2024-03-29T09:48:07;99074.56;;;16.47;51.49
37304;BME280;23188;51.188;16.374;2024-03-29T09:52:12;99071.16;;;16.68;51.58
37304;BME280;23188;51.188;16.374;2024-03-29T09:56:15;99069.09;;;16.85;49.76
37304;BME280;23188;51.188;16.374;2024-03-29T10:00:18;99077.45;;;16.98;48.94
37304;BME280;23188;51.188;16.374;2024-03-29T10:04:23;99075.73;;;17.06;49.00
37304;BME280;23188;51.188;16.374;2024-03-29T10:08:27;99068.50;;;17.15;47.89
37304;BME280;23188;51.188;16.374;2024-03-29T10:12:32;99064.10;;;17.20;47.62
37304;BME280;23188;51.188;16.374;2024-03-29T10:16:35;99056.74;;;17.10;46.59
37304;BME280;23188;51.188;16.374;2024-03-29T10:20:38;99047.67;;;17.14;46.40
37304;BME280;23188;51.188;16.374;2024-03-29T10:24:41;99026.11;;;17.19;46.16
37304;BME280;23188;51.188;16.374;2024-03-29T10:28:46;99016.66;;;17.24;45.91
37304;BME280;23188;51.188;16.374;2024-03-29T10:32:49;99014.94;;;17.40;45.92
37304;BME280;23188;51.188;16.374;2024-03-29T10:36:52;99005.38;;;17.49;46.44
37304;BME280;23188;51.188;16.374;2024-03-29T10:40:56;99004.77;;;17.73;47.56
37304;BME280;23188;51.188;16.374;2024-03-29T10:44:59;98999.69;;;17.72;46.14
37304;BME280;23188;51.188;16.374;2024-03-29T10:49:03;98994.02;;;17.74;46.02
37304;BME280;23188;51.188;16.374;2024-03-29T10:53:06;98990.91;;;17.81;46.41
37304;BME280;23188;51.188;16.374;2024-03-29T10:57:16;98985.84;;;17.98;48.02
37304;BME280;23188;51.188;16.374;2024-03-29T11:01:23;98974.03;;;18.03;45.69
37304;BME280;23188;51.188;16.374;2024-03-29T11:05:28;98973.69;;;18.04;45.26
37304;BME280;23188;51.188;16.374;2024-03-29T11:09:33;98973.06;;;17.97;45.55
37304;BME280;23188;51.188;16.374;2024-03-29T11:14:01;98964.42;;;18.16;46.65
37304;BME280;23188;51.188;16.374;2024-03-29T11:18:05;98959.49;;;18.50;47.26
37304;BME280;23188;51.188;16.374;2024-03-29T11:22:11;98965.25;;;18.58;46.83
37304;BME280;23188;51.188;16.374;2024-03-29T11:26:15;98977.02;;;18.45;46.88
37304;BME280;23188;51.188;16.374;2024-03-29T11:30:19;98981.10;;;18.39;48.25
37304;BME280;23188;51.188;16.374;2024-03-29T11:34:22;98977.54;;;18.46;48.74
37304;BME280;23188;51.188;16.374;2024-03-29T11:38:32;98966.91;;;18.58;48.80
37304;BME280;23188;51.188;16.374;2024-03-29T11:42:47;98961.52;;;18.84;49.06
37304;BME280;23188;51.188;16.374;2024-03-29T11:46:50;98953.98;;;18.96;46.50
37304;BME280;23188;51.188;16.374;2024-03-29T11:50:54;98954.59;;;19.01;46.62
37304;BME280;23188;51.188;16.374;2024-03-29T11:54:57;98948.40;;;19.18;47.73
37304;BME280;23188;51.188;16.374;2024-03-29T11:59:03;98943.23;;;19.45;48.01
37304;BME280;23188;51.188;16.374;2024-03-29T12:03:07;98945.04;;;19.55;47.21
37304;BME280;23188;51.188;16.374;2024-03-29T12:07:10;98947.27;;;19.56;46.14
37304;BME280;23188;51.188;16.374;2024-03-29T12:11:14;98938.73;;;19.66;45.50
37304;BME280;23188;51.188;16.374;2024-03-29T12:15:17;98927.71;;;19.80;46.88
37304;BME280;23188;51.188;16.374;2024-03-29T12:19:23;98918.55;;;19.89;45.61
37304;BME280;23188;51.188;16.374;2024-03-29T12:23:27;98919.00;;;19.78;45.56
37304;BME280;23188;51.188;16.374;2024-03-29T12:27:35;98913.48;;;19.74;46.08
37304;BME280;23188;51.188;16.374;2024-03-29T12:31:38;98916.64;;;19.72;46.09
37304;BME280;23188;51.188;16.374;2024-03-29T12:35:42;98915.20;;;19.72;46.25
37304;BME280;23188;51.188;16.374;2024-03-29T12:39:50;98916.55;;;19.77;46.21
37304;BME280;23188;51.188;16.374;2024-03-29T12:43:56;98915.80;;;19.75;46.00
37304;BME280;23188;51.188;16.374;2024-03-29T12:47:59;98910.41;;;19.63;45.11
37304;BME280;23188;51.188;16.374;2024-03-29T12:52:05;98912.02;;;19.57;44.98
37304;BME280;23188;51.188;16.374;2024-03-29T12:56:08;98916.77;;;19.64;45.99
37304;BME280;23188;51.188;16.374;2024-03-29T13:00:11;98915.23;;;19.62;45.56
37304;BME280;23188;51.188;16.374;2024-03-29T13:04:15;98907.86;;;19.54;46.26
37304;BME280;23188;51.188;16.374;2024-03-29T13:08:18;98903.95;;;19.64;47.71
37304;BME280;23188;51.188;16.374;2024-03-29T13:12:21;98908.11;;;19.73;47.07
37304;BME280;23188;51.188;16.374;2024-03-29T13:16:24;98901.19;;;19.86;46.93
37304;BME280;23188;51.188;16.374;2024-03-29T13:20:27;98895.84;;;19.92;46.40
37304;BME280;23188;51.188;16.374;2024-03-29T13:24:30;98887.54;;;19.96;45.98
37304;BME280;23188;51.188;16.374;2024-03-29T13:28:33;98882.59;;;20.06;46.45
37304;BME280;23188;51.188;16.374;2024-03-29T13:32:40;98883.19;;;20.05;45.05
37304;BME280;23188;51.188;16.374;2024-03-29T13:36:43;98889.05;;;20.17;47.28
37304;BME280;23188;51.188;16.374;2024-03-29T13:40:48;98886.32;;;20.32;47.09
37304;BME280;23188;51.188;16.374;2024-03-29T13:44:52;98879.46;;;20.39;47.59
37304;BME280;23188;51.188;16.374;2024-03-29T13:48:56;98871.83;;;20.39;47.58
37304;BME280;23188;51.188;16.374;2024-03-29T13:52:59;98874.70;;;20.41;46.62
37304;BME280;23188;51.188;16.374;2024-03-29T13:57:02;98874.95;;;20.24;48.38
37304;BME280;23188;51.188;16.374;2024-03-29T14:01:06;98877.52;;;19.99;46.77
37304;BME280;23188;51.188;16.374;2024-03-29T14:05:10;98881.58;;;19.88;48.42
37304;BME280;23188;51.188;16.374;2024-03-29T14:09:13;98875.17;;;19.79;48.89
37304;BME280;23188;51.188;16.374;2024-03-29T14:13:16;98867.21;;;19.83;51.56
37304;BME280;23188;51.188;16.374;2024-03-29T14:17:19;98865.75;;;19.86;51.93
37304;BME280;23188;51.188;16.374;2024-03-29T14:21:23;98861.21;;;19.98;51.87
37304;BME280;23188;51.188;16.374;2024-03-29T14:25:25;98854.43;;;20.16;52.83
37304;BME280;23188;51.188;16.374;2024-03-29T14:29:29;98847.68;;;20.14;51.36
37304;BME280;23188;51.188;16.374;2024-03-29T14:33:32;98853.73;;;20.07;51.31
37304;BME280;23188;51.188;16.374;2024-03-29T14:37:36;98871.20;;;19.74;52.87
37304;BME280;23188;51.188;16.374;2024-03-29T14:41:43;98872.61;;;19.57;54.23
37304;BME280;23188;51.188;16.374;2024-03-29T14:55:25;98841.80;;;19.08;60.06
37304;BME280;23188;51.188;16.374;2024-03-29T14:59:29;98848.70;;;18.94;64.29
37304;BME280;23188;51.188;16.374;2024-03-29T15:03:33;98839.90;;;18.73;62.82
37304;BME280;23188;51.188;16.374;2024-03-29T15:07:37;98836.42;;;18.56;62.83
37304;BME280;23188;51.188;16.374;2024-03-29T15:11:40;98822.85;;;18.46;64.58
37304;BME280;23188;51.188;16.374;2024-03-29T15:21:01;98818.54;;;18.43;69.28
37304;BME280;23188;51.188;16.374;2024-03-29T15:25:07;98819.94;;;18.53;70.43
37304;BME280;23188;51.188;16.374;2024-03-29T15:29:10;98813.73;;;18.84;68.10
37304;BME280;23188;51.188;16.374;2024-03-29T15:33:13;98814.09;;;18.94;65.95
37304;BME280;23188;51.188;16.374;2024-03-29T15:37:17;98812.66;;;18.83;66.13
37304;BME280;23188;51.188;16.374;2024-03-29T15:41:48;98815.48;;;18.58;68.25
37304;BME280;23188;51.188;16.374;2024-03-29T15:45:55;98813.58;;;18.42;69.60
37304;BME280;23188;51.188;16.374;2024-03-29T15:50:02;98816.58;;;18.23;71.15
37304;BME280;23188;51.188;16.374;2024-03-29T15:54:11;98816.74;;;18.06;72.16
37304;BME280;23188;51.188;16.374;2024-03-29T15:58:24;98823.98;;;17.96;72.56
37304;BME280;23188;51.188;16.374;2024-03-29T16:02:47;98832.78;;;17.84;71.51
37304;BME280;23188;51.188;16.374;2024-03-29T16:16:29;98832.48;;;17.42;71.10
37304;BME280;23188;51.188;16.374;2024-03-29T16:25:23;98830.00;;;17.16;70.44
37304;BME280;23188;51.188;16.374;2024-03-29T16:29:52;98830.46;;;17.15;69.63
37304;BME280;23188;51.188;16.374;2024-03-29T16:39:05;98829.58;;;16.98;69.77
37304;BME280;23188;51.188;16.374;2024-03-29T16:48:02;98822.80;;;17.12;64.76
37304;BME280;23188;51.188;16.374;2024-03-29T16:52:06;98826.41;;;17.20;64.55
37304;BME280;23188;51.188;16.374;2024-03-29T16:56:09;98824.39;;;17.20;64.87
37304;BME280;23188;51.188;16.374;2024-03-29T17:05:12;98831.11;;;17.09;65.43
37304;BME280;23188;51.188;16.374;2024-03-29T17:13:57;98830.42;;;17.00;66.53
37304;BME280;23188;51.188;16.374;2024-03-29T17:18:13;98838.35;;;16.97;67.22
37304;BME280;23188;51.188;16.374;2024-03-29T17:22:16;98845.61;;;16.85;70.47
37304;BME280;23188;51.188;16.374;2024-03-29T17:26:19;98837.68;;;16.59;73.79
37304;BME280;23188;51.188;16.374;2024-03-29T17:30:22;98827.30;;;16.34;74.91
37304;BME280;23188;51.188;16.374;2024-03-29T17:34:25;98832.50;;;16.12;75.60
37304;BME280;23188;51.188;16.374;2024-03-29T17:38:46;98836.36;;;15.90;76.76
37304;BME280;23188;51.188;16.374;2024-03-29T17:43:37;98848.89;;;15.68;77.86
37304;BME280;23188;51.188;16.374;2024-03-29T17:47:42;98842.13;;;15.48;78.35
37304;BME280;23188;51.188;16.374;2024-03-29T17:51:46;98834.50;;;15.37;78.87
37304;BME280;23188;51.188;16.374;2024-03-29T17:55:50;98825.81;;;15.19;80.09
37304;BME280;23188;51.188;16.374;2024-03-29T17:59:56;98826.41;;;15.22;79.00
37304;BME280;23188;51.188;16.374;2024-03-29T18:04:03;98831.36;;;15.22;79.70
37304;BME280;23188;51.188;16.374;2024-03-29T18:08:07;98844.88;;;15.14;81.01
37304;BME280;23188;51.188;16.374;2024-03-29T18:12:11;98843.38;;;14.93;82.83
37304;BME280;23188;51.188;16.374;2024-03-29T18:16:19;98842.96;;;14.83;82.77
37304;BME280;23188;51.188;16.374;2024-03-29T18:20:52;98849.52;;;14.85;82.82
37304;BME280;23188;51.188;16.374;2024-03-29T18:25:11;98858.02;;;14.83;83.06
37304;BME280;23188;51.188;16.374;2024-03-29T18:29:35;98865.67;;;14.78;83.50
37304;BME280;23188;51.188;16.374;2024-03-29T18:33:41;98879.09;;;14.70;84.47
37304;BME280;23188;51.188;16.374;2024-03-29T18:38:08;98885.37;;;14.61;85.33
37304;BME280;23188;51.188;16.374;2024-03-29T18:51:25;98884.62;;;14.33;88.15
37304;BME280;23188;51.188;16.374;2024-03-29T19:00:27;98880.79;;;14.23;89.22
37304;BME280;23188;51.188;16.374;2024-03-29T19:04:33;98883.13;;;14.23;89.89
37304;BME280;23188;51.188;16.374;2024-03-29T19:08:43;98886.63;;;14.25;89.76
37304;BME280;23188;51.188;16.374;2024-03-29T19:12:49;98898.02;;;14.22;91.32
37304;BME280;23188;51.188;16.374;2024-03-29T19:16:54;98904.45;;;14.24;90.27
37304;BME280;23188;51.188;16.374;2024-03-29T19:20:59;98906.01;;;14.29;90.30
37304;BME280;23188;51.188;16.374;2024-03-29T19:25:05;98909.59;;;14.34;90.18
37304;BME280;23188;51.188;16.374;2024-03-29T19:29:11;98908.55;;;14.37;90.75
37304;BME280;23188;51.188;16.374;2024-03-29T19:33:19;98905.80;;;14.35;91.66
37304;BME280;23188;51.188;16.374;2024-03-29T19:37:24;98903.70;;;14.28;92.93
37304;BME280;23188;51.188;16.374;2024-03-29T19:41:33;98899.22;;;14.15;94.45
37304;BME280;23188;51.188;16.374;2024-03-29T19:45:40;98898.63;;;13.99;96.64
37304;BME280;23188;51.188;16.374;2024-03-29T19:54:41;98900.23;;;13.99;95.28
37304;BME280;23188;51.188;16.374;2024-03-29T19:58:46;98907.88;;;14.05;95.16
37304;BME280;23188;51.188;16.374;2024-03-29T20:02:55;98908.81;;;14.09;95.35
37304;BME280;23188;51.188;16.374;2024-03-29T20:06:59;98913.08;;;14.14;94.81
37304;BME280;23188;51.188;16.374;2024-03-29T20:11:03;98907.52;;;14.16;94.79
37304;BME280;23188;51.188;16.374;2024-03-29T20:15:26;98908.73;;;14.13;94.92
37304;BME280;23188;51.188;16.374;2024-03-29T20:19:35;98910.87;;;14.13;94.70
37304;BME280;23188;51.188;16.374;2024-03-29T20:23:39;98908.83;;;14.13;94.23
37304;BME280;23188;51.188;16.374;2024-03-29T20:27:49;98913.77;;;14.16;93.84
37304;BME280;23188;51.188;16.374;2024-03-29T20:31:53;98907.92;;;14.18;93.66
37304;BME280;23188;51.188;16.374;2024-03-29T20:36:00;98901.09;;;14.22;93.68
37304;BME280;23188;51.188;16.374;2024-03-29T20:40:04;98904.64;;;14.25;93.59
37304;BME280;23188;51.188;16.374;2024-03-29T20:44:07;98909.27;;;14.21;94.18
37304;BME280;23188;51.188;16.374;2024-03-29T20:48:11;98908.38;;;14.16;94.46
37304;BME280;23188;51.188;16.374;2024-03-29T20:52:15;98908.59;;;14.16;94.63
37304;BME280;23188;51.188;16.374;2024-03-29T20:56:24;98910.83;;;14.13;94.25
37304;BME280;23188;51.188;16.374;2024-03-29T21:00:28;98913.14;;;14.10;94.34
37304;BME280;23188;51.188;16.374;2024-03-29T21:05:05;98909.71;;;14.09;94.26
37304;BME280;23188;51.188;16.374;2024-03-29T21:14:45;98903.80;;;13.99;94.18
37304;BME280;23188;51.188;16.374;2024-03-29T21:18:58;98900.15;;;13.86;95.18
37304;BME280;23188;51.188;16.374;2024-03-29T21:23:06;98896.02;;;13.72;95.90
37304;BME280;23188;51.188;16.374;2024-03-29T21:27:12;98893.17;;;13.57;96.39
37304;BME280;23188;51.188;16.374;2024-03-29T21:31:16;98893.55;;;13.44;96.97
37304;BME280;23188;51.188;16.374;2024-03-29T21:35:23;98890.88;;;13.30;98.23
37304;BME280;23188;51.188;16.374;2024-03-29T21:39:27;98892.33;;;13.17;99.58
37304;BME280;23188;51.188;16.374;2024-03-29T21:43:52;98894.09;;;13.08;100.00
37304;BME280;23188;51.188;16.374;2024-03-29T21:47:55;98900.71;;;13.11;100.00
37304;BME280;23188;51.188;16.374;2024-03-29T21:51:58;98896.27;;;13.08;100.00
37304;BME280;23188;51.188;16.374;2024-03-29T21:56:01;98895.12;;;13.04;100.00
37304;BME280;23188;51.188;16.374;2024-03-29T22:00:04;98898.42;;;12.98;100.00
37304;BME280;23188;51.188;16.374;2024-03-29T22:09:02;98900.81;;;12.73;100.00
37304;BME280;23188;51.188;16.374;2024-03-29T22:13:06;98896.78;;;12.67;100.00
37304;BME280;23188;51.188;16.374;2024-03-29T22:17:08;98893.98;;;12.65;100.00
37304;BME280;23188;51.188;16.374;2024-03-29T22:21:11;98896.85;;;12.58;100.00
37304;BME280;23188;51.188;16.374;2024-03-29T22:25:40;98897.55;;;12.56;100.00
37304;BME280;23188;51.188;16.374;2024-03-29T22:29:45;98901.18;;;12.56;100.00
37304;BME280;23188;51.188;16.374;2024-03-29T22:33:49;98899.52;;;12.56;100.00
37304;BME280;23188;51.188;16.374;2024-03-29T22:37:51;98903.67;;;12.61;100.00
37304;BME280;23188;51.188;16.374;2024-03-29T22:41:54;98900.98;;;12.56;100.00
37304;BME280;23188;51.188;16.374;2024-03-29T22:45:57;98893.52;;;12.43;100.00